sensor_id;sensor_type;location;lat;lon;timestamp;pressure;altitude;pressure_sealevel;temperature;humidity
50103;BME280;35993;52.604;10.078;2023-02-12T00:01:30;103182.44;;;6.85;100.00
50103;BME280;35993;52.604;10.078;2023-02-12T00:03:56;103179.97;;;6.82;100.00
50103;BME280;35993;52.604;10.078;2023-02-12T00:06:22;103185.22;;;6.84;100.00
50103;BME280;35993;52.604;10.078;2023-02-12T00:08:49;103189.78;;;6.83;100.00
50103;BME280;35993;52.604;10.078;2023-02-12T00:11:18;103193.59;;;6.81;100.00
50103;BME280;35993;52.604;10.078;2023-02-12T00:13:45;103193.00;;;6.77;100.00
50103;BME280;35993;52.604;10.078;2023-02-12T00:16:17;103199.84;;;6.81;100.00
50103;BME280;35993;52.604;10.078;2023-02-12T00:18:44;103196.31;;;6.81;100.00
50103;BME280;35993;52.604;10.078;2023-02-12T00:21:11;103200.72;;;6.82;100.00
50103;BME280;35993;52.604;10.078;2023-02-12T00:23:39;103197.28;;;6.80;100.00
50103;BME280;35993;52.604;10.078;2023-02-12T00:26:07;103202.69;;;6.80;100.00
50103;BME280;35993;52.604;10.078;2023-02-12T00:28:34;103202.81;;;6.78;100.00
50103;BME280;35993;52.604;10.078;2023-02-12T00:31:05;103198.03;;;6.82;100.00
50103;BME280;35993;52.604;10.078;2023-02-12T00:33:32;103206.38;;;6.79;100.00
50103;BME280;35993;52.604;10.078;2023-02-12T00:35:59;103201.84;;;6.79;100.00
50103;BME280;35993;52.604;10.078;2023-02-12T00:38:26;103206.50;;;6.77;100.00
50103;BME280;35993;52.604;10.078;2023-02-12T00:40:54;103204.41;;;6.81;100.00
50103;BME280;35993;52.604;10.078;2023-02-12T00:43:21;103203.28;;;6.83;100.00
50103;BME280;35993;52.604;10.078;2023-02-12T00:45:47;103209.44;;;6.85;100.00
50103;BME280;35993;52.604;10.078;2023-02-12T00:48:16;103214.41;;;6.90;100.00
50103;BME280;35993;52.604;10.078;2023-02-12T00:50:47;103215.28;;;6.91;100.00
50103;BME280;35993;52.604;10.078;2023-02-12T00:53:16;103213.16;;;6.94;100.00
50103;BME280;35993;52.604;10.078;2023-02-12T00:55:43;103217.38;;;6.87;100.00
50103;BME280;35993;52.604;10.078;2023-02-12T00:58:09;103212.22;;;6.84;100.00
50103;BME280;35993;52.604;10.078;2023-02-12T01:00:35;103207.94;;;6.81;100.00
50103;BME280;35993;52.604;10.078;2023-02-12T01:03:02;103205.38;;;6.80;100.00
50103;BME280;35993;52.604;10.078;2023-02-12T01:05:31;103202.56;;;6.81;100.00
50103;BME280;35993;52.604;10.078;2023-02-12T01:07:57;103206.97;;;6.82;100.00
50103;BME280;35993;52.604;10.078;2023-02-12T01:10:23;103210.78;;;6.80;100.00
50103;BME280;35993;52.604;10.078;2023-02-12T01:12:49;103204.13;;;6.84;100.00
50103;BME280;35993;52.604;10.078;2023-02-12T01:15:16;103207.81;;;6.83;100.00
50103;BME280;35993;52.604;10.078;2023-02-12T01:17:42;103208.69;;;6.83;100.00
50103;BME280;35993;52.604;10.078;2023-02-12T01:20:14;103208.94;;;6.80;100.00
50103;BME280;35993;52.604;10.078;2023-02-12T01:22:42;103207.72;;;6.84;100.00
50103;BME280;35993;52.604;10.078;2023-02-12T01:25:09;103208.56;;;6.85;100.00
50103;BME280;35993;52.604;10.078;2023-02-12T01:27:35;103212.38;;;6.82;100.00
50103;BME280;35993;52.604;10.078;2023-02-12T01:30:02;103208.38;;;6.77;100.00
50103;BME280;35993;52.604;10.078;2023-02-12T01:32:27;103200.25;;;6.77;100.00
50103;BME280;35993;52.604;10.078;2023-02-12T01:34:53;103211.16;;;6.75;100.00
50103;BME280;35993;52.604;10.078;2023-02-12T01:37:20;103210.47;;;6.73;100.00
50103;BME280;35993;52.604;10.078;2023-02-12T01:39:46;103211.06;;;6.77;100.00
50103;BME280;35993;52.604;10.078;2023-02-12T01:42:14;103200.13;;;6.78;100.00
50103;BME280;35993;52.604;10.078;2023-02-12T01:45:17;103208.94;;;6.80;100.00
50103;BME280;35993;52.604;10.078;2023-02-12T01:47:31;103207.09;;;6.81;100.00
50103;BME280;35993;52.604;10.078;2023-02-12T01:49:57;103201.84;;;6.79;100.00
50103;BME280;35993;52.604;10.078;2023-02-12T01:52:26;103206.66;;;6.76;100.00
50103;BME280;35993;52.604;10.078;2023-02-12T01:54:57;103203.94;;;6.76;100.00
50103;BME280;35993;52.604;10.078;2023-02-12T01:57:27;103209.81;;;6.81;100.00
50103;BME280;35993;52.604;10.078;2023-02-12T01:59:57;103209.94;;;6.79;100.00
50103;BME280;35993;52.604;10.078;2023-02-12T02:02:25;103218.03;;;6.79;100.00
50103;BME280;35993;52.604;10.078;2023-02-12T02:04:55;103212.66;;;6.79;100.00
50103;BME280;35993;52.604;10.078;2023-02-12T02:07:22;103215.22;;;6.81;100.00
50103;BME280;35993;52.604;10.078;2023-02-12T02:09:48;103214.22;;;6.82;100.00
50103;BME280;35993;52.604;10.078;2023-02-12T02:12:15;103218.03;;;6.79;100.00
50103;BME280;35993;52.604;10.078;2023-02-12T02:15:15;103217.16;;;6.79;100.00
50103;BME280;35993;52.604;10.078;2023-02-12T02:18:08;103225.63;;;6.85;100.00
50103;BME280;35993;52.604;10.078;2023-02-12T02:24:02;103214.59;;;6.77;100.00
50103;BME280;35993;52.604;10.078;2023-02-12T02:29:33;103213.88;;;6.75;100.00
50103;BME280;35993;52.604;10.078;2023-02-12T02:32:22;103218.41;;;6.75;100.00
50103;BME280;35993;52.604;10.078;2023-02-12T02:35:00;103219.88;;;6.79;100.00
50103;BME280;35993;52.604;10.078;2023-02-12T02:37:38;103209.94;;;6.79;100.00
50103;BME280;35993;52.604;10.078;2023-02-12T02:40:09;103208.09;;;6.80;100.00
50103;BME280;35993;52.604;10.078;2023-02-12T02:42:41;103206.38;;;6.79;100.00
50103;BME280;35993;52.604;10.078;2023-02-12T02:45:12;103199.53;;;6.75;100.00
50103;BME280;35993;52.604;10.078;2023-02-12T02:47:45;103213.16;;;6.73;100.00
50103;BME280;35993;52.604;10.078;2023-02-12T02:50:16;103218.81;;;6.70;100.00
50103;BME280;35993;52.604;10.078;2023-02-12T02:52:48;103217.69;;;6.72;100.00
50103;BME280;35993;52.604;10.078;2023-02-12T02:55:17;103217.44;;;6.76;100.00
50103;BME280;35993;52.604;10.078;2023-02-12T02:57:54;103220.28;;;6.74;100.00
50103;BME280;35993;52.604;10.078;2023-02-12T03:00:26;103233.88;;;6.72;100.00
50103;BME280;35993;52.604;10.078;2023-02-12T03:03:01;103232.28;;;6.70;100.00
50103;BME280;35993;52.604;10.078;2023-02-12T03:05:36;103230.59;;;6.69;100.00
50103;BME280;35993;52.604;10.078;2023-02-12T03:08:11;103235.59;;;6.73;100.00
50103;BME280;35993;52.604;10.078;2023-02-12T03:10:42;103233.63;;;6.76;100.00
50103;BME280;35993;52.604;10.078;2023-02-12T03:13:20;103233.88;;;6.72;100.00
50103;BME280;35993;52.604;10.078;2023-02-12T03:15:56;103232.75;;;6.75;100.00
50103;BME280;35993;52.604;10.078;2023-02-12T03:18:27;103230.59;;;6.69;100.00
50103;BME280;35993;52.604;10.078;2023-02-12T03:21:00;103239.22;;;6.63;100.00
50103;BME280;35993;52.604;10.078;2023-02-12T03:23:45;103233.94;;;6.61;100.00
50103;BME280;35993;52.604;10.078;2023-02-12T03:26:15;103237.38;;;6.63;100.00
50103;BME280;35993;52.604;10.078;2023-02-12T03:28:42;103238.94;;;6.66;100.00
50103;BME280;35993;52.604;10.078;2023-02-12T03:31:33;103244.22;;;6.67;100.00
50103;BME280;35993;52.604;10.078;2023-02-12T03:36:53;103254.53;;;6.62;100.00
50103;BME280;35993;52.604;10.078;2023-02-12T03:45:00;103264.22;;;6.65;100.00
50103;BME280;35993;52.604;10.078;2023-02-12T03:47:47;103269.75;;;6.63;100.00
50103;BME280;35993;52.604;10.078;2023-02-12T03:50:16;103272.44;;;6.63;100.00
50103;BME280;35993;52.604;10.078;2023-02-12T03:52:45;103275.66;;;6.57;100.00
50103;BME280;35993;52.604;10.078;2023-02-12T03:55:11;103261.44;;;6.55;100.00
50103;BME280;35993;52.604;10.078;2023-02-12T03:57:47;103269.28;;;6.58;100.00
50103;BME280;35993;52.604;10.078;2023-02-12T04:00:22;103271.59;;;6.63;100.00
50103;BME280;35993;52.604;10.078;2023-02-12T04:02:49;103274.44;;;6.61;100.00
50103;BME280;35993;52.604;10.078;2023-02-12T04:05:21;103277.00;;;6.63;100.00
50103;BME280;35993;52.604;10.078;2023-02-12T04:07:48;103278.59;;;6.65;100.00
50103;BME280;35993;52.604;10.078;2023-02-12T04:10:15;103283.72;;;6.68;100.00
50103;BME280;35993;52.604;10.078;2023-02-12T04:13:03;103284.84;;;6.66;100.00
50103;BME280;35993;52.604;10.078;2023-02-12T04:15:51;103285.72;;;6.66;100.00
50103;BME280;35993;52.604;10.078;2023-02-12T04:18:24;103291.09;;;6.66;100.00
50103;BME280;35993;52.604;10.078;2023-02-12T04:21:07;103294.91;;;6.64;100.00
50103;BME280;35993;52.604;10.078;2023-02-12T04:26:08;103297.84;;;6.61;100.00
50103;BME280;35993;52.604;10.078;2023-02-12T04:28:48;103294.19;;;6.62;100.00
50103;BME280;35993;52.604;10.078;2023-02-12T04:31:30;103300.31;;;6.64;100.00
50103;BME280;35993;52.604;10.078;2023-02-12T04:34:14;103302.16;;;6.63;100.00
50103;BME280;35993;52.604;10.078;2023-02-12T04:36:51;103308.16;;;6.67;100.00
50103;BME280;35993;52.604;10.078;2023-02-12T04:39:22;103309.75;;;6.69;100.00
50103;BME280;35993;52.604;10.078;2023-02-12T04:41:50;103313.81;;;6.64;100.00
50103;BME280;35993;52.604;10.078;2023-02-12T04:44:26;103317.88;;;6.58;100.00
50103;BME280;35993;52.604;10.078;2023-02-12T04:46:53;103311.34;;;6.61;100.00
50103;BME280;35993;52.604;10.078;2023-02-12T04:49:20;103314.94;;;6.61;100.00
50103;BME280;35993;52.604;10.078;2023-02-12T04:51:47;103306.09;;;6.59;100.00
50103;BME280;35993;52.604;10.078;2023-02-12T04:54:15;103314.44;;;6.56;100.00
50103;BME280;35993;52.604;10.078;2023-02-12T04:56:41;103314.31;;;6.58;100.00
50103;BME280;35993;52.604;10.078;2023-02-12T04:59:07;103312.22;;;6.61;100.00
50103;BME280;35993;52.604;10.078;2023-02-12T05:01:35;103324.63;;;6.64;100.00
50103;BME280;35993;52.604;10.078;2023-02-12T05:04:02;103316.63;;;6.62;100.00
50103;BME280;35993;52.604;10.078;2023-02-12T05:06:28;103311.34;;;6.61;100.00
50103;BME280;35993;52.604;10.078;2023-02-12T05:08:57;103314.78;;;6.63;100.00
50103;BME280;35993;52.604;10.078;2023-02-12T05:11:22;103304.50;;;6.56;100.00
50103;BME280;35993;52.604;10.078;2023-02-12T05:13:49;103312.22;;;6.61;100.00
50103;BME280;35993;52.604;10.078;2023-02-12T05:16:16;103325.25;;;6.56;100.00
50103;BME280;35993;52.604;10.078;2023-02-12T05:18:43;103319.09;;;6.54;100.00
50103;BME280;35993;52.604;10.078;2023-02-12T05:21:08;103322.03;;;6.51;100.00
50103;BME280;35993;52.604;10.078;2023-02-12T05:23:36;103324.16;;;6.47;100.00
50103;BME280;35993;52.604;10.078;2023-02-12T05:26:10;103329.66;;;6.46;100.00
50103;BME280;35993;52.604;10.078;2023-02-12T05:28:36;103330.41;;;6.48;100.00
50103;BME280;35993;52.604;10.078;2023-02-12T05:31:04;103330.53;;;6.46;100.00
50103;BME280;35993;52.604;10.078;2023-02-12T05:33:30;103320.84;;;6.44;100.00
50103;BME280;35993;52.604;10.078;2023-02-12T05:36:05;103323.16;;;6.48;100.00
50103;BME280;35993;52.604;10.078;2023-02-12T05:38:32;103316.78;;;6.49;100.00
50103;BME280;35993;52.604;10.078;2023-02-12T05:41:07;103326.59;;;6.50;100.00
50103;BME280;35993;52.604;10.078;2023-02-12T05:43:33;103321.06;;;6.52;100.00
50103;BME280;35993;52.604;10.078;2023-02-12T05:46:00;103335.16;;;6.55;100.00
50103;BME280;35993;52.604;10.078;2023-02-12T05:48:27;103321.94;;;6.52;100.00
50103;BME280;35993;52.604;10.078;2023-02-12T05:50:53;103322.91;;;6.51;100.00
50103;BME280;35993;52.604;10.078;2023-02-12T05:53:19;103329.78;;;6.55;100.00
50103;BME280;35993;52.604;10.078;2023-02-12T05:55:45;103320.09;;;6.53;100.00
50103;BME280;35993;52.604;10.078;2023-02-12T05:58:11;103325.63;;;6.51;100.00
50103;BME280;35993;52.604;10.078;2023-02-12T06:00:36;103322.91;;;6.51;100.00
50103;BME280;35993;52.604;10.078;2023-02-12T06:03:02;103321.66;;;6.55;100.00
50103;BME280;35993;52.604;10.078;2023-02-12T06:05:28;103323.13;;;6.60;100.00
50103;BME280;35993;52.604;10.078;2023-02-12T06:07:53;103327.94;;;6.56;100.00
50103;BME280;35993;52.604;10.078;2023-02-12T06:10:19;103316.63;;;6.51;100.00
50103;BME280;35993;52.604;10.078;2023-02-12T06:12:45;103326.47;;;6.52;100.00
50103;BME280;35993;52.604;10.078;2023-02-12T06:15:10;103326.59;;;6.50;100.00
50103;BME280;35993;52.604;10.078;2023-02-12T06:17:36;103332.97;;;6.49;100.00
50103;BME280;35993;52.604;10.078;2023-02-12T06:20:02;103340.94;;;6.51;100.00
50103;BME280;35993;52.604;10.078;2023-02-12T06:22:28;103338.50;;;6.48;100.00
50103;BME280;35993;52.604;10.078;2023-02-12T06:24:53;103339.59;;;6.45;100.00
50103;BME280;35993;52.604;10.078;2023-02-12T06:27:19;103340.34;;;6.47;100.00
50103;BME280;35993;52.604;10.078;2023-02-12T06:29:44;103342.03;;;6.48;100.00
50103;BME280;35993;52.604;10.078;2023-02-12T06:32:10;103342.44;;;6.44;100.00
50103;BME280;35993;52.604;10.078;2023-02-12T06:34:38;103350.75;;;6.40;100.00
50103;BME280;35993;52.604;10.078;2023-02-12T06:37:04;103352.47;;;6.42;100.00
50103;BME280;35993;52.604;10.078;2023-02-12T06:39:30;103357.38;;;6.48;100.00
50103;BME280;35993;52.604;10.078;2023-02-12T06:41:55;103354.41;;;6.51;100.00
50103;BME280;35993;52.604;10.078;2023-02-12T06:44:21;103357.38;;;6.48;100.00
50103;BME280;35993;52.604;10.078;2023-02-12T06:46:47;103357.25;;;6.49;100.00
50103;BME280;35993;52.604;10.078;2023-02-12T06:49:13;103367.34;;;6.47;100.00
50103;BME280;35993;52.604;10.078;2023-02-12T06:51:39;103363.63;;;6.48;100.00
50103;BME280;35993;52.604;10.078;2023-02-12T06:54:15;103370.75;;;6.49;100.00
50103;BME280;35993;52.604;10.078;2023-02-12T06:56:41;103365.47;;;6.48;100.00
50103;BME280;35993;52.604;10.078;2023-02-12T06:59:12;103370.13;;;6.46;100.00
50103;BME280;35993;52.604;10.078;2023-02-12T07:01:39;103367.34;;;6.47;100.00
50103;BME280;35993;52.604;10.078;2023-02-12T07:04:05;103368.44;;;6.45;100.00
50103;BME280;35993;52.604;10.078;2023-02-12T07:06:33;103370.88;;;6.48;100.00
50103;BME280;35993;52.604;10.078;2023-02-12T07:08:59;103372.25;;;6.42;100.00
50103;BME280;35993;52.604;10.078;2023-02-12T07:11:28;103378.34;;;6.44;100.00
50103;BME280;35993;52.604;10.078;2023-02-12T07:13:54;103368.94;;;6.38;100.00
50103;BME280;35993;52.604;10.078;2023-02-12T07:16:20;103369.78;;;6.39;100.00
50103;BME280;35993;52.604;10.078;2023-02-12T07:18:45;103365.50;;;6.36;100.00
50103;BME280;35993;52.604;10.078;2023-02-12T07:21:12;103371.63;;;6.38;100.00
50103;BME280;35993;52.604;10.078;2023-02-12T07:23:38;103370.41;;;6.31;100.00
50103;BME280;35993;52.604;10.078;2023-02-12T07:26:10;103379.38;;;6.32;100.00
50103;BME280;35993;52.604;10.078;2023-02-12T07:28:36;103387.69;;;6.29;100.00
50103;BME280;35993;52.604;10.078;2023-02-12T07:31:06;103373.22;;;6.30;100.00
50103;BME280;35993;52.604;10.078;2023-02-12T07:33:33;103391.38;;;6.39;100.00
50103;BME280;35993;52.604;10.078;2023-02-12T07:36:00;103384.63;;;6.45;100.00
50103;BME280;35993;52.604;10.078;2023-02-12T07:38:25;103391.22;;;6.40;100.00
50103;BME280;35993;52.604;10.078;2023-02-12T07:40:52;103389.03;;;6.46;100.00
50103;BME280;35993;52.604;10.078;2023-02-12T07:43:17;103394.19;;;6.49;100.00
50103;BME280;35993;52.604;10.078;2023-02-12T07:45:43;103389.28;;;6.43;100.00
50103;BME280;35993;52.604;10.078;2023-02-12T07:48:09;103395.44;;;6.45;100.00
50103;BME280;35993;52.604;10.078;2023-02-12T07:50:34;103394.69;;;6.43;100.00
50103;BME280;35993;52.604;10.078;2023-02-12T07:53:00;103388.78;;;6.49;100.00
50103;BME280;35993;52.604;10.078;2023-02-12T07:55:25;103397.72;;;6.49;100.00
50103;BME280;35993;52.604;10.078;2023-02-12T07:57:51;103397.38;;;6.54;100.00
50103;BME280;35993;52.604;10.078;2023-02-12T08:00:17;103394.41;;;6.57;100.00
50103;BME280;35993;52.604;10.078;2023-02-12T08:02:42;103400.81;;;6.45;100.00
50103;BME280;35993;52.604;10.078;2023-02-12T08:05:08;103404.25;;;6.47;100.00
50103;BME280;35993;52.604;10.078;2023-02-12T08:07:33;103411.09;;;6.51;100.00
50103;BME280;35993;52.604;10.078;2023-02-12T08:09:59;103410.88;;;6.54;100.00
50103;BME280;35993;52.604;10.078;2023-02-12T08:12:24;103414.31;;;6.45;100.00
50103;BME280;35993;52.604;10.078;2023-02-12T08:14:50;103415.41;;;6.53;100.00
50103;BME280;35993;52.604;10.078;2023-02-12T08:17:16;103417.09;;;6.54;100.00
50103;BME280;35993;52.604;10.078;2023-02-12T08:19:41;103418.72;;;6.46;100.00
50103;BME280;35993;52.604;10.078;2023-02-12T08:22:07;103421.03;;;6.50;100.00
50103;BME280;35993;52.604;10.078;2023-02-12T08:24:32;103426.69;;;6.59;100.00
50103;BME280;35993;52.604;10.078;2023-02-12T08:26:58;103421.78;;;6.64;100.00
50103;BME280;35993;52.604;10.078;2023-02-12T08:29:27;103429.88;;;6.64;100.00
50103;BME280;35993;52.604;10.078;2023-02-12T08:31:58;103426.69;;;6.47;100.00
50103;BME280;35993;52.604;10.078;2023-02-12T08:34:29;103427.28;;;6.51;100.00
50103;BME280;35993;52.604;10.078;2023-02-12T08:36:55;103432.59;;;6.52;100.00
50103;BME280;35993;52.604;10.078;2023-02-12T08:39:23;103424.84;;;6.59;100.00
50103;BME280;35993;52.604;10.078;2023-02-12T08:41:49;103427.78;;;6.67;100.00
50103;BME280;35993;52.604;10.078;2023-02-12T08:44:15;103432.06;;;6.70;100.00
50103;BME280;35993;52.604;10.078;2023-02-12T08:46:46;103434.53;;;6.73;100.00
50103;BME280;35993;52.604;10.078;2023-02-12T08:49:14;103439.44;;;6.79;100.00
50103;BME280;35993;52.604;10.078;2023-02-12T08:51:43;103448.66;;;6.77;100.00
50103;BME280;35993;52.604;10.078;2023-02-12T08:54:11;103438.56;;;6.67;100.00
50103;BME280;35993;52.604;10.078;2023-02-12T08:56:38;103448.75;;;6.75;100.00
50103;BME280;35993;52.604;10.078;2023-02-12T08:59:05;103450.25;;;6.79;100.00
50103;BME280;35993;52.604;10.078;2023-02-12T09:01:33;103452.81;;;6.81;100.00
50103;BME280;35993;52.604;10.078;2023-02-12T09:04:00;103452.81;;;6.81;100.00
50103;BME280;35993;52.604;10.078;2023-02-12T09:06:25;103459.19;;;6.68;100.00
50103;BME280;35993;52.604;10.078;2023-02-12T09:08:52;103456.34;;;6.70;100.00
50103;BME280;35993;52.604;10.078;2023-02-12T09:11:21;103456.63;;;6.78;100.00
50103;BME280;35993;52.604;10.078;2023-02-12T09:14:00;103467.53;;;6.77;100.00
50103;BME280;35993;52.604;10.078;2023-02-12T09:16:28;103470.59;;;6.72;100.00
50103;BME280;35993;52.604;10.078;2023-02-12T09:18:54;103474.91;;;6.75;100.00
50103;BME280;35993;52.604;10.078;2023-02-12T09:21:20;103473.78;;;6.77;100.00
50103;BME280;35993;52.604;10.078;2023-02-12T09:23:46;103470.97;;;6.67;100.00
50103;BME280;35993;52.604;10.078;2023-02-12T09:26:14;103475.25;;;6.70;100.00
50103;BME280;35993;52.604;10.078;2023-02-12T09:28:40;103477.47;;;6.76;100.00
50103;BME280;35993;52.604;10.078;2023-02-12T09:31:08;103484.84;;;6.74;100.00
50103;BME280;35993;52.604;10.078;2023-02-12T09:33:34;103481.75;;;6.79;100.00
50103;BME280;35993;52.604;10.078;2023-02-12T09:36:01;103484.72;;;6.76;100.00
50103;BME280;35993;52.604;10.078;2023-02-12T09:38:27;103488.03;;;6.79;100.00
50103;BME280;35993;52.604;10.078;2023-02-12T09:41:17;103487.28;;;6.77;100.00
50103;BME280;35993;52.604;10.078;2023-02-12T09:47:18;103487.66;;;6.84;100.00
50103;BME280;35993;52.604;10.078;2023-02-12T09:52:05;103491.72;;;6.89;100.00
50103;BME280;35993;52.604;10.078;2023-02-12T09:54:38;103488.53;;;6.96;100.00
50103;BME280;35993;52.604;10.078;2023-02-12T09:57:10;103490.97;;;6.99;100.00
50103;BME280;35993;52.604;10.078;2023-02-12T09:59:44;103496.00;;;6.92;100.00
50103;BME280;35993;52.604;10.078;2023-02-12T10:02:14;103488.25;;;6.87;100.00
50103;BME280;35993;52.604;10.078;2023-02-12T10:04:45;103492.19;;;6.95;100.00
50103;BME280;35993;52.604;10.078;2023-02-12T10:07:37;103498.56;;;6.94;100.00
50103;BME280;35993;52.604;10.078;2023-02-12T10:12:55;103503.00;;;6.95;100.00
50103;BME280;35993;52.604;10.078;2023-02-12T10:15:28;103504.72;;;6.96;100.00
50103;BME280;35993;52.604;10.078;2023-02-12T10:23:48;103503.72;;;7.08;100.00
50103;BME280;35993;52.604;10.078;2023-02-12T10:26:30;103505.56;;;7.08;100.00
50103;BME280;35993;52.604;10.078;2023-02-12T10:29:11;103501.75;;;6.99;100.00
50103;BME280;35993;52.604;10.078;2023-02-12T10:31:41;103498.94;;;6.89;100.00
50103;BME280;35993;52.604;10.078;2023-02-12T10:34:16;103501.91;;;6.86;100.00
50103;BME280;35993;52.604;10.078;2023-02-12T10:36:45;103496.84;;;6.81;100.00
50103;BME280;35993;52.604;10.078;2023-02-12T10:39:21;103500.31;;;6.83;100.00
50103;BME280;35993;52.604;10.078;2023-02-12T10:41:54;103501.53;;;6.91;100.00
50103;BME280;35993;52.604;10.078;2023-02-12T10:44:20;103497.97;;;6.90;100.00
50103;BME280;35993;52.604;10.078;2023-02-12T10:46:46;103503.13;;;6.93;100.00
50103;BME280;35993;52.604;10.078;2023-02-12T10:49:14;103512.81;;;6.96;100.00
50103;BME280;35993;52.604;10.078;2023-02-12T10:54:39;103502.38;;;6.91;100.00
50103;BME280;35993;52.604;10.078;2023-02-12T10:57:21;103507.03;;;7.00;100.00
50103;BME280;35993;52.604;10.078;2023-02-12T10:59:49;103507.78;;;7.02;100.00
50103;BME280;35993;52.604;10.078;2023-02-12T11:02:36;103510.09;;;7.07;100.00
50103;BME280;35993;52.604;10.078;2023-02-12T11:05:21;103504.31;;;7.12;100.00
50103;BME280;35993;52.604;10.078;2023-02-12T11:07:49;103503.56;;;7.10;100.00
50103;BME280;35993;52.604;10.078;2023-02-12T11:10:35;103497.47;;;7.08;100.00
50103;BME280;35993;52.604;10.078;2023-02-12T11:13:02;103499.91;;;7.11;100.00
50103;BME280;35993;52.604;10.078;2023-02-12T11:15:37;103501.50;;;7.13;100.00
50103;BME280;35993;52.604;10.078;2023-02-12T11:18:20;103494.34;;;7.12;100.00
50103;BME280;35993;52.604;10.078;2023-02-12T11:20:52;103498.16;;;7.10;100.00
50103;BME280;35993;52.604;10.078;2023-02-12T11:25:56;103489.34;;;7.08;100.00
50103;BME280;35993;52.604;10.078;2023-02-12T11:28:23;103484.44;;;7.13;100.00
50103;BME280;35993;52.604;10.078;2023-02-12T11:30:55;103484.28;;;7.14;100.00
50103;BME280;35993;52.604;10.078;2023-02-12T11:35:58;103482.06;;;7.19;100.00
50103;BME280;35993;52.604;10.078;2023-02-12T11:38:32;103473.34;;;7.16;100.00
50103;BME280;35993;52.604;10.078;2023-02-12T11:41:03;103472.84;;;7.22;100.00
50103;BME280;35993;52.604;10.078;2023-02-12T11:43:33;103477.31;;;7.12;100.00
50103;BME280;35993;52.604;10.078;2023-02-12T11:46:02;103472.84;;;7.22;100.00
50103;BME280;35993;52.604;10.078;2023-02-12T11:48:31;103472.25;;;7.18;100.00
50103;BME280;35993;52.604;10.078;2023-02-12T11:51:02;103472.00;;;7.21;100.00
50103;BME280;35993;52.604;10.078;2023-02-12T11:53:35;103469.06;;;7.13;100.00
50103;BME280;35993;52.604;10.078;2023-02-12T11:56:04;103462.06;;;7.11;100.00
50103;BME280;35993;52.604;10.078;2023-02-12T11:58:30;103459.88;;;7.04;100.00
50103;BME280;35993;52.604;10.078;2023-02-12T12:09:14;103451.72;;;7.27;100.00
50103;BME280;35993;52.604;10.078;2023-02-12T12:14:54;103453.44;;;7.28;100.00
50103;BME280;35993;52.604;10.078;2023-02-12T12:17:46;103446.19;;;7.29;100.00
50103;BME280;35993;52.604;10.078;2023-02-12T12:20:40;103449.63;;;7.31;100.00
50103;BME280;35993;52.604;10.078;2023-02-12T12:23:20;103451.69;;;7.38;100.00
50103;BME280;35993;52.604;10.078;2023-02-12T12:26:27;103447.13;;;7.39;100.00
50103;BME280;35993;52.604;10.078;2023-02-12T12:29:00;103445.53;;;7.36;100.00
50103;BME280;35993;52.604;10.078;2023-02-12T12:31:30;103453.00;;;7.44;100.00
50103;BME280;35993;52.604;10.078;2023-02-12T12:37:02;103439.38;;;7.46;100.00
50103;BME280;35993;52.604;10.078;2023-02-12T12:45:12;103433.09;;;7.45;100.00
50103;BME280;35993;52.604;10.078;2023-02-12T12:48:07;103429.88;;;7.51;100.00
50103;BME280;35993;52.604;10.078;2023-02-12T13:01:29;103418.56;;;7.58;100.00
50103;BME280;35993;52.604;10.078;2023-02-12T13:07:02;103415.25;;;7.54;100.00
50103;BME280;35993;52.604;10.078;2023-02-12T13:17:32;103409.19;;;7.62;100.00
50103;BME280;35993;52.604;10.078;2023-02-12T13:23:02;103406.25;;;7.65;100.00
50103;BME280;35993;52.604;10.078;2023-02-12T13:28:13;103395.66;;;7.62;100.00
50103;BME280;35993;52.604;10.078;2023-02-12T13:30:48;103393.84;;;7.62;100.00
50103;BME280;35993;52.604;10.078;2023-02-12T13:33:22;103390.78;;;7.55;100.00
50103;BME280;35993;52.604;10.078;2023-02-12T13:35:53;103392.50;;;7.57;100.00
50103;BME280;35993;52.604;10.078;2023-02-12T13:38:24;103396.94;;;7.58;100.00
50103;BME280;35993;52.604;10.078;2023-02-12T13:40:54;103397.06;;;7.56;100.00
50103;BME280;35993;52.604;10.078;2023-02-12T13:43:59;103388.06;;;7.55;100.00
50103;BME280;35993;52.604;10.078;2023-02-12T13:46:49;103382.94;;;7.52;100.00
50103;BME280;35993;52.604;10.078;2023-02-12T13:51:56;103386.78;;;7.50;100.00
50103;BME280;35993;52.604;10.078;2023-02-12T13:57:00;103379.97;;;7.55;100.00
50103;BME280;35993;52.604;10.078;2023-02-12T13:59:38;103382.81;;;7.54;100.00
50103;BME280;35993;52.604;10.078;2023-02-12T14:02:25;103382.66;;;7.55;100.00
50103;BME280;35993;52.604;10.078;2023-02-12T14:07:17;103382.09;;;7.52;100.00
50103;BME280;35993;52.604;10.078;2023-02-12T14:09:45;103384.06;;;7.50;100.00
50103;BME280;35993;52.604;10.078;2023-02-12T14:15:29;103388.88;;;7.46;100.00
50103;BME280;35993;52.604;10.078;2023-02-12T14:18:32;103376.22;;;7.47;100.00
50103;BME280;35993;52.604;10.078;2023-02-12T14:23:39;103387.75;;;7.49;100.00
50103;BME280;35993;52.604;10.078;2023-02-12T14:26:22;103389.25;;;7.42;100.00
50103;BME280;35993;52.604;10.078;2023-02-12T14:28:56;103395.41;;;7.44;100.00
50103;BME280;35993;52.604;10.078;2023-02-12T14:36:41;103403.03;;;7.38;100.00
50103;BME280;35993;52.604;10.078;2023-02-12T14:41:49;103403.41;;;7.34;100.00
50103;BME280;35993;52.604;10.078;2023-02-12T14:46:50;103404.34;;;7.44;100.00
50103;BME280;35993;52.604;10.078;2023-02-12T14:49:26;103404.16;;;7.36;100.00